Celebrity Equinox — 9HXD9 — position and weather

sailwx.info

Track history (hours):
 
Tides and Currents Weather Stations Pressure Air Temp Water Temp Dewpoint Dewpoint Depression Visibility Wind Speed Wind Dir Waves Ship Positions

Celebrity Equinox

Last reported at 2014-Jul-28 22:21 UTC. Time now 2014-Jul-29 14:46 UTC.
Position N 42°36' E 008°03'.

Length 317 m; draft 9 m.

Type: Ship. MMSI: 249667000.

Date/timePositionNaut miles runAvg speedWind from/ knotsBaromVisibWave heightAir tempDewpointWater temp
2014-Jul-28 22:21N 42°36' E 008°03'1416.3
2014-Jul-28 21:31N 42°48' E 007°54'1715.7
2014-Jul-28 20:27N 43°03' E 007°44'1515.4
2014-Jul-28 19:30N 43°16' E 007°35'1313.5
2014-Jul-28 18:33N 43°28' E 007°27'1111.1
2014-Jul-28 17:33N 43°38' E 007°20'4 3.7
2014-Jul-28 16:33N 43°41' E 007°19'0 0.0
2014-Jul-28 15:33N 43°41' E 007°19'0 0.0
2014-Jul-28 14:33N 43°41' E 007°19'0 0.0
2014-Jul-28 13:26N 43°41' E 007°19'0 0.1
2014-Jul-28 12:32N 43°41' E 007°19'0 0.0
2014-Jul-28 11:31N 43°41' E 007°19'0 0.0
2014-Jul-28 10:31N 43°41' E 007°19'0 0.0
2014-Jul-28 09:33N 43°41' E 007°19'0 0.0
2014-Jul-28 08:30N 43°41' E 007°19'0 0.0
2014-Jul-28 07:29N 43°41' E 007°19'0 0.0
2014-Jul-28 06:29N 43°41' E 007°19'0 0.0
2014-Jul-28 05:29N 43°41' E 007°19'8 8.6
2014-Jul-28 04:33N 43°38' E 007°29'2721.5
2014-Jul-28 03:19N 43°37' E 008°06'1621.1
2014-Jul-28 02:33N 43°35' E 008°28'1818.5
2014-Jul-28 01:33N 43°34' E 008°53'1918.6
2014-Jul-28 00:33N 43°32' E 009°19'1818.4
2014-Jul-27 23:33N 43°32' E 009°44'1818.3
2014-Jul-27 22:33N 43°30' E 010°09'7 6.4
2014-Jul-27 21:31N 43°33' E 010°18'0 0.0
2014-Jul-27 20:33N 43°33' E 010°18'0 0.0
2014-Jul-27 19:33N 43°33' E 010°18'0 0.0
2014-Jul-27 18:32N 43°33' E 010°18'0 0.0
2014-Jul-27 17:32N 43°33' E 010°18'0 0.0
2014-Jul-27 16:25N 43°33' E 010°18'0 0.0
2014-Jul-27 15:31N 43°33' E 010°18'0 0.0
2014-Jul-27 14:31N 43°33' E 010°18'0 0.0
2014-Jul-27 13:33N 43°33' E 010°18'0 0.0
2014-Jul-27 12:33N 43°33' E 010°18'0 0.0
2014-Jul-27 11:32N 43°33' E 010°18'0 0.0
2014-Jul-27 10:32N 43°33' E 010°18'0 0.0
2014-Jul-27 09:31N 43°33' E 010°18'0 0.0
2014-Jul-27 08:31N 43°33' E 010°18'0 0.0
2014-Jul-27 07:31N 43°33' E 010°18'0 0.0
2014-Jul-27 06:33N 43°33' E 010°18'0 0.0
2014-Jul-27 05:33N 43°33' E 010°18'0 0.0
2014-Jul-27 04:29N 43°33' E 010°18'3 2.8
2014-Jul-27 03:33N 43°31' E 010°15'1111.1
2014-Jul-27 02:33N 43°21' E 010°10'1111.0
2014-Jul-27 01:33N 43°10' E 010°07'1110.9
2014-Jul-27 00:31N 42°59' E 010°04'1010.7
2014-Jul-26 23:33N 42°49' E 010°00'1610.5
2014-Jul-26 22:03N 42°37' E 010°14'710.9
2014-Jul-26 21:26N 42°33' E 010°22'1011.2
2014-Jul-26 20:31N 42°27' E 010°33'78 3.8
2014-Jul-26 00:16N 41°38' E 011°55'6021.5
2014-Jul-25 21:28N 40°52' E 012°46'2921.4
2014-Jul-25 20:06N 40°42' E 013°22'1221.6
2014-Jul-25 19:33N 40°39' E 013°37'2121.5
2014-Jul-25 18:33N 40°32' E 014°04'2120.6
2014-Jul-25 17:32N 40°34' E 014°32'9 0.6
2014-Jul-25 03:32N 40°32' E 014°43'2416.4
2014-Jul-25 02:04N 40°08' E 014°46'229 7.7
2014-Jul-23 20:22N 36°20' E 015°09'12 9.7
2014-Jul-23 19:12N 36°12' E 014°58'6 9.7
2014-Jul-23 18:33N 36°08' E 014°52'10 9.7
2014-Jul-23 17:33N 36°03' E 014°42'1010.0
2014-Jul-23 16:32N 35°55' E 014°34'426 9.9
2014-Jul-21 21:33N 36°30' E 023°20'1514.5
2014-Jul-21 20:33N 36°44' E 023°28'414.4
2014-Jul-21 20:17N 36°47' E 023°30'1314.4
2014-Jul-21 19:21N 37°00' E 023°34'1214.6
2014-Jul-21 18:31N 37°12' E 023°37'1614.5
2014-Jul-21 17:26N 37°27' E 023°40'1314.5
2014-Jul-21 16:33N 37°40' E 023°41'1514.7
2014-Jul-21 15:33N 37°55' E 023°37'2 1.7
2014-Jul-21 14:33N 37°56' E 023°37'0 0.0
2014-Jul-21 13:33N 37°56' E 023°37'0 0.0
2014-Jul-21 12:29N 37°56' E 023°37'0 0.0
2014-Jul-21 11:32N 37°56' E 023°37'0 0.0
2014-Jul-21 10:29N 37°56' E 023°37'0 0.0
2014-Jul-21 08:19N 37°56' E 023°37'0 0.0
2014-Jul-21 07:33N 37°56' E 023°37'0 0.0
2014-Jul-21 06:33N 37°56' E 023°37'6 1.0
2014-Jul-21 00:32N 37°51' E 023°40'4112.6
2014-Jul-20 21:20N 37°30' E 024°24'1114.3
2014-Jul-20 20:33N 37°32' E 024°38'1514.3
2014-Jul-20 19:31N 37°32' E 024°57'1717.3
2014-Jul-20 18:33N 37°28' E 025°17'2 2.0
2014-Jul-20 17:33N 37°27' E 025°19'0 0.0
2014-Jul-20 16:33N 37°27' E 025°19'0 0.0
2014-Jul-20 15:32N 37°27' E 025°19'0 0.0
2014-Jul-20 14:32N 37°27' E 025°19'0 0.0
2014-Jul-20 13:31N 37°27' E 025°19'0 0.0
2014-Jul-20 12:31N 37°27' E 025°19'0 0.0
2014-Jul-20 11:33N 37°27' E 025°19'0 0.0
2014-Jul-20 10:33N 37°27' E 025°19'0 0.1
2014-Jul-20 09:33N 37°27' E 025°19'6 5.6
2014-Jul-20 08:33N 37°33' E 025°18'2019.1
2014-Jul-20 07:30N 37°53' E 025°22'1918.9
2014-Jul-20 06:30N 38°11' E 025°23'1918.8
2014-Jul-20 05:31N 38°30' E 025°24'  
Track history (hours):
 
Tides and Currents Weather Stations Pressure Air Temp Water Temp Dewpoint Dewpoint Depression Visibility Wind Speed Wind Dir Waves Ship Positions

Celebrity Equinox

Last reported at 2014-Jul-28 22:21 UTC. Time now 2014-Jul-29 14:46 UTC.
Position N 42°36' E 008°03'.

Length 317 m; draft 9 m.

Type: Ship. MMSI: 249667000.

Date/timePositionNaut miles runAvg speedWind from/ knotsBaromVisibWave heightAir tempDewpointWater temp
2014-Jul-28 22:21N 42°36' E 008°03'1416.3
2014-Jul-28 21:31N 42°48' E 007°54'1715.7
2014-Jul-28 20:27N 43°03' E 007°44'1515.4
2014-Jul-28 19:30N 43°16' E 007°35'1313.5
2014-Jul-28 18:33N 43°28' E 007°27'1111.1
2014-Jul-28 17:33N 43°38' E 007°20'4 3.7
2014-Jul-28 16:33N 43°41' E 007°19'0 0.0
2014-Jul-28 15:33N 43°41' E 007°19'0 0.0
2014-Jul-28 14:33N 43°41' E 007°19'0 0.0
2014-Jul-28 13:26N 43°41' E 007°19'0 0.1
2014-Jul-28 12:32N 43°41' E 007°19'0 0.0
2014-Jul-28 11:31N 43°41' E 007°19'0 0.0
2014-Jul-28 10:31N 43°41' E 007°19'0 0.0
2014-Jul-28 09:33N 43°41' E 007°19'0 0.0
2014-Jul-28 08:30N 43°41' E 007°19'0 0.0
2014-Jul-28 07:29N 43°41' E 007°19'0 0.0
2014-Jul-28 06:29N 43°41' E 007°19'0 0.0
2014-Jul-28 05:29N 43°41' E 007°19'8 8.6
2014-Jul-28 04:33N 43°38' E 007°29'2721.5
2014-Jul-28 03:19N 43°37' E 008°06'1621.1
2014-Jul-28 02:33N 43°35' E 008°28'1818.5
2014-Jul-28 01:33N 43°34' E 008°53'1918.6
2014-Jul-28 00:33N 43°32' E 009°19'1818.4
2014-Jul-27 23:33N 43°32' E 009°44'1818.3
2014-Jul-27 22:33N 43°30' E 010°09'7 6.4
2014-Jul-27 21:31N 43°33' E 010°18'0 0.0
2014-Jul-27 20:33N 43°33' E 010°18'0 0.0
2014-Jul-27 19:33N 43°33' E 010°18'0 0.0
2014-Jul-27 18:32N 43°33' E 010°18'0 0.0
2014-Jul-27 17:32N 43°33' E 010°18'0 0.0
2014-Jul-27 16:25N 43°33' E 010°18'0 0.0
2014-Jul-27 15:31N 43°33' E 010°18'0 0.0
2014-Jul-27 14:31N 43°33' E 010°18'0 0.0
2014-Jul-27 13:33N 43°33' E 010°18'0 0.0
2014-Jul-27 12:33N 43°33' E 010°18'0 0.0
2014-Jul-27 11:32N 43°33' E 010°18'0 0.0
2014-Jul-27 10:32N 43°33' E 010°18'0 0.0
2014-Jul-27 09:31N 43°33' E 010°18'0 0.0
2014-Jul-27 08:31N 43°33' E 010°18'0 0.0
2014-Jul-27 07:31N 43°33' E 010°18'0 0.0
2014-Jul-27 06:33N 43°33' E 010°18'0 0.0
2014-Jul-27 05:33N 43°33' E 010°18'0 0.0
2014-Jul-27 04:29N 43°33' E 010°18'3 2.8
2014-Jul-27 03:33N 43°31' E 010°15'1111.1
2014-Jul-27 02:33N 43°21' E 010°10'1111.0
2014-Jul-27 01:33N 43°10' E 010°07'1110.9
2014-Jul-27 00:31N 42°59' E 010°04'1010.7
2014-Jul-26 23:33N 42°49' E 010°00'1610.5
2014-Jul-26 22:03N 42°37' E 010°14'710.9
2014-Jul-26 21:26N 42°33' E 010°22'1011.2
2014-Jul-26 20:31N 42°27' E 010°33'78 3.8
2014-Jul-26 00:16N 41°38' E 011°55'6021.5
2014-Jul-25 21:28N 40°52' E 012°46'2921.4
2014-Jul-25 20:06N 40°42' E 013°22'1221.6
2014-Jul-25 19:33N 40°39' E 013°37'2121.5
2014-Jul-25 18:33N 40°32' E 014°04'2120.6
2014-Jul-25 17:32N 40°34' E 014°32'9 0.6
2014-Jul-25 03:32N 40°32' E 014°43'2416.4
2014-Jul-25 02:04N 40°08' E 014°46'229 7.7
2014-Jul-23 20:22N 36°20' E 015°09'12 9.7
2014-Jul-23 19:12N 36°12' E 014°58'6 9.7
2014-Jul-23 18:33N 36°08' E 014°52'10 9.7
2014-Jul-23 17:33N 36°03' E 014°42'1010.0
2014-Jul-23 16:32N 35°55' E 014°34'426 9.9
2014-Jul-21 21:33N 36°30' E 023°20'1514.5
2014-Jul-21 20:33N 36°44' E 023°28'414.4
2014-Jul-21 20:17N 36°47' E 023°30'1314.4
2014-Jul-21 19:21N 37°00' E 023°34'1214.6
2014-Jul-21 18:31N 37°12' E 023°37'1614.5
2014-Jul-21 17:26N 37°27' E 023°40'1314.5
2014-Jul-21 16:33N 37°40' E 023°41'1514.7
2014-Jul-21 15:33N 37°55' E 023°37'2 1.7
2014-Jul-21 14:33N 37°56' E 023°37'0 0.0
2014-Jul-21 13:33N 37°56' E 023°37'0 0.0
2014-Jul-21 12:29N 37°56' E 023°37'0 0.0
2014-Jul-21 11:32N 37°56' E 023°37'0 0.0
2014-Jul-21 10:29N 37°56' E 023°37'0 0.0
2014-Jul-21 08:19N 37°56' E 023°37'0 0.0
2014-Jul-21 07:33N 37°56' E 023°37'0 0.0
2014-Jul-21 06:33N 37°56' E 023°37'6 1.0
2014-Jul-21 00:32N 37°51' E 023°40'4112.6
2014-Jul-20 21:20N 37°30' E 024°24'1114.3
2014-Jul-20 20:33N 37°32' E 024°38'1514.3
2014-Jul-20 19:31N 37°32' E 024°57'1717.3
2014-Jul-20 18:33N 37°28' E 025°17'2 2.0
2014-Jul-20 17:33N 37°27' E 025°19'0 0.0
2014-Jul-20 16:33N 37°27' E 025°19'0 0.0
2014-Jul-20 15:32N 37°27' E 025°19'0 0.0
2014-Jul-20 14:32N 37°27' E 025°19'0 0.0
2014-Jul-20 13:31N 37°27' E 025°19'0 0.0
2014-Jul-20 12:31N 37°27' E 025°19'0 0.0
2014-Jul-20 11:33N 37°27' E 025°19'0 0.0
2014-Jul-20 10:33N 37°27' E 025°19'0 0.1
2014-Jul-20 09:33N 37°27' E 025°19'6 5.6
2014-Jul-20 08:33N 37°33' E 025°18'2019.1
2014-Jul-20 07:30N 37°53' E 025°22'1918.9
2014-Jul-20 06:30N 38°11' E 025°23'1918.8
2014-Jul-20 05:31N 38°30' E 025°24'  

Dump ship's entire track history